Terminal Aerodrome Forecast
Issued by NWS

Home | Current Version | Previous Version | Text Only | Print | Product List | Glossary On
Versions: 1 2 3 4 5 6 7 8 9 10 11 12 13 14 15 16 17 18 19 20 21 22 23 24
000
FTUS43 KAPX 011910 AAA
TAFPLN
TAF AMD
KPLN 011910Z 0119/0218 09010KT 3SM BR SCT009 OVC015
      TEMPO 0119/0121 1SM -SHRA BR OVC009
     FM012100 07009KT 3SM SHRA BR OVC008
     FM020500 05006KT 3SM SHRA BR OVC003
     FM020900 03005KT 1SM BR OVC003
     FM021400 02006KT 3SM BR OVC008=

USA.gov is the U.S. government's official web portal to all federal, state and local government web resources and services.